Terminal Aerodrome Forecast
Issued by NWS Wilmington, OH

Current Version | Previous Version | Text Only | Print | Product List | Glossary Off
Versions: 1 2 3 4 5 6 7 8 9 10 11 12 13 14 15 16 17 18 19 20 21 22 23 24 25 26 27 28 29 30 31 32 33

000
FTUS41 KILN 281700
TAFCVG
TAF
KCVG 281737Z 2818/2924 29015G24KT P6SM SCT050
     FM282200 27008KT P6SM SCT050
     FM290200 20003KT P6SM FEW080 BKN250
     FM290900 17008KT P6SM VCSH SCT040 BKN080
     FM291400 20010G17KT P6SM -SHRA BKN040
     FM291800 22012G21KT P6SM VCTS BKN035CB=

USA.gov is the U.S. government's official web portal to all federal, state and local government web resources and services.